createdAt,value
2023-05-04T11:08:45.518Z,5592.00
2023-05-04T11:09:45.427Z,5628.00
2023-05-04T11:10:45.410Z,5736.00
2023-05-04T11:11:45.401Z,5792.00
2023-05-04T11:12:45.447Z,5872.00
2023-05-04T11:13:45.372Z,5960.00
2023-05-04T11:14:45.334Z,6048.00
2023-05-04T11:15:45.356Z,6092.00
2023-05-04T11:16:45.362Z,6136.00
2023-05-04T11:17:45.355Z,6168.00
2023-05-04T11:18:45.319Z,6196.00
2023-05-04T11:19:45.283Z,6240.00
2023-05-04T11:20:53.109Z,6288.00
2023-05-04T11:21:45.277Z,6328.00
2023-05-04T11:22:45.238Z,6348.00
2023-05-04T11:23:45.257Z,6376.00
2023-05-04T11:24:45.215Z,6404.00
2023-05-04T11:25:45.221Z,6384.00
2023-05-04T11:26:45.199Z,6420.00
2023-05-04T11:27:45.206Z,6332.00
2023-05-04T11:28:45.201Z,6380.00
2023-05-04T11:29:45.166Z,6520.00
2023-05-04T11:30:45.147Z,6596.00
2023-05-04T11:31:45.198Z,6796.00
2023-05-04T11:32:45.177Z,6972.00
2023-05-04T11:33:45.138Z,6960.00
2023-05-04T11:34:45.120Z,6852.00
2023-05-04T11:35:45.120Z,6752.00
2023-05-04T11:36:45.081Z,6632.00
2023-05-04T11:37:45.073Z,6380.00
2023-05-04T11:38:45.071Z,6228.00
2023-05-04T11:39:45.064Z,6252.00
2023-05-04T11:40:45.035Z,6344.00
2023-05-04T11:41:45.054Z,6460.00
2023-05-04T11:42:45.053Z,6476.00
2023-05-04T11:43:45.010Z,6476.00
2023-05-04T11:44:44.991Z,6456.00
2023-05-04T11:45:45.015Z,6508.00
2023-05-04T11:46:44.988Z,6592.00
2023-05-04T11:47:45.037Z,6692.00
2023-05-04T11:48:44.995Z,6792.00
2023-05-04T11:49:44.944Z,6908.00
2023-05-04T11:50:44.953Z,7076.00
2023-05-04T11:51:44.940Z,7228.00
2023-05-04T11:52:44.921Z,7316.00
2023-05-04T11:53:44.909Z,7472.00
2023-05-04T11:54:44.903Z,7612.00
2023-05-04T11:55:44.894Z,7724.00
2023-05-04T11:56:44.859Z,7880.00
2023-05-04T11:57:44.875Z,8000.00
2023-05-04T11:58:44.857Z,8044.00
2023-05-04T11:59:44.833Z,8048.00
2023-05-04T12:00:44.829Z,7964.00
2023-05-04T12:01:44.816Z,8004.00
2023-05-04T12:02:44.854Z,8016.00
2023-05-04T12:03:53.637Z,8024.00
2023-05-04T12:04:44.774Z,7916.00
2023-05-04T12:05:44.841Z,7836.00
2023-05-04T12:06:44.759Z,7740.00
2023-05-04T12:07:44.770Z,7836.00
2023-05-04T12:08:44.744Z,8020.00
2023-05-04T12:09:44.783Z,8084.00
2023-05-04T12:10:44.728Z,8144.00
2023-05-04T12:11:44.769Z,8256.00
2023-05-04T12:12:44.745Z,8324.00
2023-05-04T12:13:44.711Z,8364.00
2023-05-04T12:14:44.687Z,8416.00
2023-05-04T12:15:44.682Z,8468.00
2023-05-04T12:16:44.738Z,8544.00
2023-05-04T12:17:44.677Z,8608.00
2023-05-04T12:18:44.627Z,8604.00
2023-05-04T12:19:44.642Z,8596.00
2023-05-04T12:20:44.624Z,8596.00
2023-05-04T12:21:44.617Z,8680.00
2023-05-04T12:22:44.609Z,8800.00
2023-05-04T12:23:44.601Z,8892.00
2023-05-04T12:24:44.584Z,8992.00
2023-05-04T12:25:57.339Z,9100.00
2023-05-04T12:26:44.579Z,9188.00
2023-05-04T12:27:44.599Z,9404.00
2023-05-04T12:28:44.545Z,9608.00
2023-05-04T12:29:44.541Z,9860.00
2023-05-04T12:30:44.523Z,10140.00
2023-05-04T12:31:44.562Z,10384.00
2023-05-04T12:32:44.551Z,10608.00
2023-05-04T12:33:44.502Z,10824.00
2023-05-04T12:34:44.513Z,10932.00
2023-05-04T12:35:44.479Z,11132.00
2023-05-04T12:36:44.547Z,11412.00
2023-05-04T12:37:44.455Z,11700.00
2023-05-04T12:38:44.434Z,11900.00
2023-05-04T12:39:44.445Z,11908.00
2023-05-04T12:40:44.445Z,11752.00
2023-05-04T12:41:44.402Z,11548.00
2023-05-04T12:42:44.387Z,11492.00
2023-05-04T12:43:44.418Z,11484.00
2023-05-04T12:44:44.387Z,11456.00
2023-05-04T12:45:44.410Z,11324.00
2023-05-04T12:46:44.373Z,11284.00
2023-05-04T12:47:44.365Z,11288.00
2023-05-04T12:48:44.364Z,11156.00
2023-05-04T12:49:44.349Z,11120.00
2023-05-04T12:50:44.314Z,11064.00
2023-05-04T12:51:44.308Z,11080.00
2023-05-04T12:52:44.318Z,11140.00
2023-05-04T12:53:44.348Z,11216.00
2023-05-04T12:54:44.274Z,11320.00
2023-05-04T12:55:44.274Z,11408.00
2023-05-04T12:56:44.257Z,11372.00
2023-05-04T12:57:44.259Z,11080.00
2023-05-04T12:58:44.241Z,10948.00
2023-05-04T12:59:44.253Z,10856.00
2023-05-04T13:00:46.023Z,11080.00
2023-05-04T13:01:44.340Z,11024.00
2023-05-04T13:02:44.258Z,10904.00
2023-05-04T13:03:44.275Z,10976.00
2023-05-04T13:04:44.221Z,11020.00
2023-05-04T13:05:44.193Z,11148.00
2023-05-04T13:06:45.689Z,11456.00
2023-05-04T13:07:44.176Z,11484.00
2023-05-04T13:08:44.161Z,11716.00
2023-05-04T13:09:44.202Z,11908.00
2023-05-04T13:10:44.152Z,11960.00
2023-05-04T13:11:44.137Z,11984.00
2023-05-04T13:12:46.097Z,12300.00
2023-05-04T13:13:44.124Z,13020.00
2023-05-04T13:14:44.119Z,14080.00
2023-05-04T13:15:44.155Z,15376.00
2023-05-04T13:16:44.112Z,16704.00
2023-05-04T13:17:44.180Z,18432.00
2023-05-04T13:18:44.078Z,19904.00
2023-05-04T13:19:44.079Z,24992.00
2023-05-04T13:20:44.091Z,30336.00
2023-05-04T13:21:44.081Z,37920.00
2023-05-04T13:22:44.050Z,41504.00
2023-05-04T13:23:44.048Z,42208.00
2023-05-04T13:24:44.073Z,44192.00
2023-05-04T13:25:44.062Z,43520.00
2023-05-04T13:26:44.031Z,41280.00
2023-05-04T13:27:44.029Z,37568.00
2023-05-04T13:28:44.030Z,47424.00
2023-05-04T13:29:44.104Z,51008.00
2023-05-04T13:30:44.031Z,54080.00
2023-05-04T13:31:45.375Z,54880.00
2023-05-04T13:32:44.032Z,54880.00
2023-05-04T13:33:43.987Z,58048.00
2023-05-04T13:34:43.966Z,57216.00
2023-05-04T13:35:43.970Z,61120.00
2023-05-04T13:36:43.977Z,59712.00
2023-05-04T13:37:43.961Z,60064.00
2023-05-04T13:38:43.964Z,59968.00
2023-05-04T13:39:43.921Z,58656.00
2023-05-04T13:40:43.930Z,58560.00
2023-05-04T13:41:43.941Z,63744.00
2023-05-04T13:42:43.940Z,63744.00
2023-05-04T13:43:43.924Z,63648.00
2023-05-04T13:44:43.924Z,62240.00
2023-05-04T13:45:43.920Z,62976.00
2023-05-04T13:46:43.956Z,61888.00
2023-05-04T13:47:43.893Z,62016.00
2023-05-04T13:48:43.942Z,60480.00
2023-05-04T13:49:43.866Z,59808.00
2023-05-04T13:50:43.864Z,59232.00
2023-05-04T13:51:43.855Z,58080.00
2023-05-04T13:52:43.905Z,59808.00
2023-05-04T13:53:43.846Z,60608.00
2023-05-04T13:54:43.873Z,61344.00
2023-05-04T13:55:43.837Z,62688.00
2023-05-04T13:56:43.857Z,61600.00
2023-05-04T13:57:43.860Z,62400.00
2023-05-04T13:58:43.855Z,63040.00
2023-05-04T13:59:54.641Z,63136.00
2023-05-04T14:00:43.878Z,63072.00
2023-05-04T14:01:43.812Z,63552.00
2023-05-04T14:02:43.883Z,62880.00
2023-05-04T14:03:43.808Z,60608.00
2023-05-04T14:04:44.446Z,57984.00
2023-05-04T14:05:43.790Z,57888.00
2023-05-04T14:06:43.822Z,59616.00
2023-05-04T14:07:43.788Z,57408.00
2023-05-04T14:08:43.824Z,56000.00
2023-05-04T14:09:43.778Z,54848.00
2023-05-04T14:10:43.779Z,56320.00
2023-05-04T14:11:43.763Z,53536.00
2023-05-04T14:12:43.807Z,55776.00
2023-05-04T14:13:43.754Z,54496.00
2023-05-04T14:14:43.794Z,55008.00
2023-05-04T14:15:43.750Z,52896.00
2023-05-04T14:16:43.788Z,54272.00
2023-05-04T14:17:43.845Z,51296.00
2023-05-04T14:18:43.760Z,53280.00
2023-05-04T14:19:43.770Z,52608.00
2023-05-04T14:20:43.764Z,49216.00
2023-05-04T14:21:43.723Z,52288.00
2023-05-04T14:22:43.751Z,51200.00
2023-05-04T14:23:43.741Z,48224.00
2023-05-04T14:24:43.743Z,47584.00
2023-05-04T14:25:43.742Z,45952.00
2023-05-04T14:26:43.718Z,45280.00
2023-05-04T14:27:43.752Z,38592.00
2023-05-04T14:28:43.710Z,34336.00
2023-05-04T14:29:44.845Z,24000.00
2023-05-04T14:30:43.710Z,35072.00
2023-05-04T14:31:43.727Z,34496.00
2023-05-04T14:32:43.747Z,36256.00
2023-05-04T14:33:43.678Z,37312.00
2023-05-04T14:34:43.704Z,26880.00
2023-05-04T14:35:44.365Z,34880.00
2023-05-04T14:36:43.687Z,39136.00
2023-05-04T14:37:43.674Z,37312.00
2023-05-04T14:38:43.681Z,39648.00
2023-05-04T14:39:43.666Z,41888.00
2023-05-04T14:40:43.679Z,41728.00
2023-05-04T14:41:43.642Z,41472.00
2023-05-04T14:42:43.657Z,34272.00
2023-05-04T14:43:43.643Z,33664.00
2023-05-04T14:44:43.637Z,38880.00
2023-05-04T14:45:43.653Z,39488.00
2023-05-04T14:46:43.650Z,40832.00
2023-05-04T14:47:43.670Z,44416.00
2023-05-04T14:48:43.632Z,44512.00
2023-05-04T14:49:43.621Z,45312.00
2023-05-04T14:50:43.629Z,49376.00
2023-05-04T14:51:43.593Z,52352.00
2023-05-04T14:52:43.616Z,55584.00
2023-05-04T14:53:43.594Z,67104.00
2023-05-04T14:54:43.585Z,70304.00
2023-05-04T14:55:43.583Z,64128.00
2023-05-04T14:56:43.596Z,58944.00
2023-05-04T14:57:43.569Z,43648.00
2023-05-04T14:58:43.625Z,39360.00
2023-05-04T14:59:43.591Z,28800.00
2023-05-04T15:00:43.642Z,29184.00
2023-05-04T15:01:43.636Z,29888.00
2023-05-04T15:02:43.671Z,25920.00
2023-05-04T15:03:43.612Z,35904.00
2023-05-04T15:04:43.551Z,42848.00
2023-05-04T15:05:43.562Z,44192.00
2023-05-04T15:06:43.558Z,48832.00
2023-05-04T15:07:43.526Z,55744.00
2023-05-04T15:08:43.536Z,56896.00
2023-05-04T15:09:43.532Z,53184.00
2023-05-04T15:10:43.521Z,53504.00
2023-05-04T15:11:43.542Z,52640.00
2023-05-04T15:12:43.554Z,42528.00
2023-05-04T15:13:43.501Z,52288.00
2023-05-04T15:14:43.525Z,49824.00
2023-05-04T15:15:43.522Z,52896.00
2023-05-04T15:16:43.507Z,56224.00
2023-05-04T15:17:43.526Z,49408.00
2023-05-04T15:18:43.495Z,43328.00
2023-05-04T15:19:43.510Z,33120.00
2023-05-04T15:20:43.498Z,33536.00
2023-05-04T15:21:43.504Z,30752.00
2023-05-04T15:22:43.487Z,31840.00
2023-05-04T15:23:43.493Z,32672.00
2023-05-04T15:24:43.481Z,35840.00
2023-05-04T15:25:43.470Z,29376.00
2023-05-04T15:26:43.480Z,32672.00
2023-05-04T15:27:43.448Z,37504.00
2023-05-04T15:28:43.450Z,35936.00
2023-05-04T15:29:43.436Z,34912.00
2023-05-04T15:30:43.452Z,34432.00
2023-05-04T15:31:43.496Z,32288.00
2023-05-04T15:32:43.460Z,43168.00
2023-05-04T15:33:43.461Z,45600.00
2023-05-04T15:34:50.687Z,33952.00
2023-05-04T15:35:43.427Z,32928.00
2023-05-04T15:36:43.413Z,31328.00
2023-05-04T15:37:43.430Z,36608.00
2023-05-04T15:38:43.402Z,39968.00
2023-05-04T15:39:43.380Z,42304.00
2023-05-04T15:40:43.388Z,40544.00
2023-05-04T15:41:43.384Z,37184.00
2023-05-04T15:42:43.398Z,29472.00
2023-05-04T15:43:43.358Z,32032.00
2023-05-04T15:44:43.396Z,32832.00
2023-05-04T15:45:43.375Z,35488.00
2023-05-04T15:46:43.412Z,34624.00
2023-05-04T15:47:43.389Z,34880.00
2023-05-04T15:48:43.352Z,34048.00
2023-05-04T15:49:43.356Z,35296.00
2023-05-04T15:50:43.333Z,38080.00
2023-05-04T15:51:43.365Z,41344.00
2023-05-04T15:52:43.350Z,35072.00
2023-05-04T15:53:43.335Z,39968.00
2023-05-04T15:54:43.340Z,40896.00
2023-05-04T15:55:43.317Z,39264.00
2023-05-04T15:56:43.533Z,37632.00
2023-05-04T15:57:43.322Z,36128.00
2023-05-04T15:58:43.304Z,35392.00
2023-05-04T15:59:43.288Z,32000.00
2023-05-04T16:00:43.313Z,35072.00
2023-05-04T16:01:43.355Z,40768.00
2023-05-04T16:02:43.365Z,40640.00
2023-05-04T16:03:43.374Z,39424.00
2023-05-04T16:04:43.305Z,38496.00
2023-05-04T16:05:43.295Z,37888.00
2023-05-04T16:06:43.276Z,35872.00
2023-05-04T16:07:43.282Z,35104.00
2023-05-04T16:08:43.277Z,34432.00
2023-05-04T16:09:43.274Z,32544.00
2023-05-04T16:10:43.258Z,34848.00
2023-05-04T16:11:43.253Z,32608.00
2023-05-04T16:12:43.303Z,32640.00
2023-05-04T16:13:43.267Z,36224.00
2023-05-04T16:14:43.252Z,34720.00
2023-05-04T16:15:43.244Z,32928.00
2023-05-04T16:16:43.292Z,32416.00
2023-05-04T16:17:43.270Z,31712.00
2023-05-04T16:18:43.242Z,33952.00
2023-05-04T16:19:43.253Z,32032.00
2023-05-04T16:20:43.259Z,25728.00
2023-05-04T16:21:43.227Z,27168.00
2023-05-04T16:22:43.267Z,25952.00
2023-05-04T16:23:43.236Z,21792.00
2023-05-04T16:24:43.245Z,23680.00
2023-05-04T16:25:43.235Z,23488.00
2023-05-04T16:26:43.225Z,25632.00
2023-05-04T16:27:43.379Z,25248.00
2023-05-04T16:28:43.216Z,22624.00
2023-05-04T16:29:43.226Z,18976.00
2023-05-04T16:30:43.230Z,16448.00
2023-05-04T16:31:43.230Z,16192.00
2023-05-04T16:32:43.252Z,15328.00
2023-05-04T16:34:46.328Z,16864.00
2023-05-04T16:35:46.330Z,16128.00
2023-05-04T16:43:37.357Z,20064.00
2023-05-04T16:44:37.350Z,21696.00
2023-05-04T16:45:37.314Z,23104.00
2023-05-04T16:46:37.462Z,23488.00
2023-05-04T16:47:37.372Z,21632.00
2023-05-04T16:48:37.347Z,18880.00
2023-05-04T16:49:37.317Z,17792.00
2023-05-04T16:50:37.304Z,15648.00
2023-05-04T16:51:37.286Z,16768.00
2023-05-04T16:52:37.290Z,17600.00
2023-05-04T16:53:37.310Z,19136.00
2023-05-04T16:54:37.306Z,17920.00
2023-05-04T16:55:37.276Z,16288.00
2023-05-04T16:56:37.299Z,13244.00
2023-05-04T16:57:37.268Z,12580.00
2023-05-04T16:58:37.304Z,12040.00
2023-05-04T16:59:37.271Z,12960.00
2023-05-04T17:00:37.268Z,13100.00
2023-05-04T17:01:37.306Z,13684.00
2023-05-04T17:02:37.297Z,16288.00
2023-05-04T17:03:37.339Z,15456.00
2023-05-04T17:04:37.232Z,14304.00
2023-05-04T17:05:37.222Z,12560.00
2023-05-04T17:06:37.218Z,10788.00
2023-05-04T17:07:37.223Z,9560.00
2023-05-04T17:08:37.221Z,8824.00
2023-05-04T17:09:37.209Z,8388.00
2023-05-04T17:10:37.215Z,8080.00
2023-05-04T17:11:37.187Z,7648.00
2023-05-04T17:13:21.151Z,7236.00
2023-05-04T17:14:21.065Z,7000.00
2023-05-04T17:15:21.060Z,6820.00
2023-05-04T17:16:21.044Z,6664.00
2023-05-04T17:17:21.036Z,6588.00
2023-05-04T17:18:21.026Z,6900.00
